sensor_id;sensor_type;location;lat;lon;timestamp;P1;durP1;ratioP1;P2;durP2;ratioP2
20245;SDS011;10281;54.406;18.556;2023-08-20T00:00:55;18.93;;;17.03;;
20245;SDS011;10281;54.406;18.556;2023-08-20T00:03:22;17.50;;;15.90;;
20245;SDS011;10281;54.406;18.556;2023-08-20T00:05:49;18.63;;;16.00;;
20245;SDS011;10281;54.406;18.556;2023-08-20T00:08:16;17.57;;;15.87;;
20245;SDS011;10281;54.406;18.556;2023-08-20T00:10:43;18.33;;;16.73;;
20245;SDS011;10281;54.406;18.556;2023-08-20T00:13:09;16.70;;;15.20;;
20245;SDS011;10281;54.406;18.556;2023-08-20T00:15:36;17.67;;;16.00;;
20245;SDS011;10281;54.406;18.556;2023-08-20T00:18:03;17.83;;;16.00;;
20245;SDS011;10281;54.406;18.556;2023-08-20T00:20:30;18.27;;;16.47;;
20245;SDS011;10281;54.406;18.556;2023-08-20T00:22:57;18.63;;;16.93;;
20245;SDS011;10281;54.406;18.556;2023-08-20T00:25:24;18.30;;;16.60;;
20245;SDS011;10281;54.406;18.556;2023-08-20T00:27:51;18.10;;;16.50;;
20245;SDS011;10281;54.406;18.556;2023-08-20T00:30:18;18.03;;;15.97;;
20245;SDS011;10281;54.406;18.556;2023-08-20T00:32:44;18.17;;;16.33;;
20245;SDS011;10281;54.406;18.556;2023-08-20T00:35:11;17.90;;;16.20;;
20245;SDS011;10281;54.406;18.556;2023-08-20T00:37:38;18.77;;;16.97;;
20245;SDS011;10281;54.406;18.556;2023-08-20T00:40:05;18.73;;;16.83;;
20245;SDS011;10281;54.406;18.556;2023-08-20T00:42:32;17.80;;;16.20;;
20245;SDS011;10281;54.406;18.556;2023-08-20T00:44:58;16.93;;;15.43;;
20245;SDS011;10281;54.406;18.556;2023-08-20T00:47:25;17.63;;;15.87;;
20245;SDS011;10281;54.406;18.556;2023-08-20T00:49:53;18.83;;;16.90;;
20245;SDS011;10281;54.406;18.556;2023-08-20T00:52:20;17.47;;;15.87;;
20245;SDS011;10281;54.406;18.556;2023-08-20T00:54:47;18.10;;;16.37;;
20245;SDS011;10281;54.406;18.556;2023-08-20T00:57:17;17.83;;;16.23;;
20245;SDS011;10281;54.406;18.556;2023-08-20T00:59:46;18.33;;;16.23;;
20245;SDS011;10281;54.406;18.556;2023-08-20T01:02:15;17.70;;;15.90;;
20245;SDS011;10281;54.406;18.556;2023-08-20T01:04:43;18.30;;;16.40;;
20245;SDS011;10281;54.406;18.556;2023-08-20T01:07:23;17.73;;;16.03;;
20245;SDS011;10281;54.406;18.556;2023-08-20T01:09:59;17.37;;;15.47;;
20245;SDS011;10281;54.406;18.556;2023-08-20T01:12:29;17.47;;;15.90;;
20245;SDS011;10281;54.406;18.556;2023-08-20T01:14:57;17.77;;;16.07;;
20245;SDS011;10281;54.406;18.556;2023-08-20T01:17:24;17.30;;;15.70;;
20245;SDS011;10281;54.406;18.556;2023-08-20T01:19:50;18.10;;;16.37;;
20245;SDS011;10281;54.406;18.556;2023-08-20T01:25:04;17.93;;;16.27;;
20245;SDS011;10281;54.406;18.556;2023-08-20T01:27:39;16.83;;;15.23;;
20245;SDS011;10281;54.406;18.556;2023-08-20T01:30:08;17.40;;;15.60;;
20245;SDS011;10281;54.406;18.556;2023-08-20T01:32:36;17.40;;;15.80;;
20245;SDS011;10281;54.406;18.556;2023-08-20T01:35:06;17.13;;;15.53;;
20245;SDS011;10281;54.406;18.556;2023-08-20T01:37:33;16.53;;;15.03;;
20245;SDS011;10281;54.406;18.556;2023-08-20T01:39:59;16.67;;;15.00;;
20245;SDS011;10281;54.406;18.556;2023-08-20T01:42:26;17.00;;;15.50;;
20245;SDS011;10281;54.406;18.556;2023-08-20T01:44:52;17.40;;;15.80;;
20245;SDS011;10281;54.406;18.556;2023-08-20T01:47:19;18.67;;;16.87;;
20245;SDS011;10281;54.406;18.556;2023-08-20T01:49:45;18.70;;;16.73;;
20245;SDS011;10281;54.406;18.556;2023-08-20T01:52:12;18.87;;;17.27;;
20245;SDS011;10281;54.406;18.556;2023-08-20T01:54:39;18.83;;;17.03;;
20245;SDS011;10281;54.406;18.556;2023-08-20T01:57:05;18.67;;;16.83;;
20245;SDS011;10281;54.406;18.556;2023-08-20T01:59:32;17.80;;;16.07;;
20245;SDS011;10281;54.406;18.556;2023-08-20T02:01:59;18.63;;;16.87;;
20245;SDS011;10281;54.406;18.556;2023-08-20T02:04:25;18.83;;;17.00;;
20245;SDS011;10281;54.406;18.556;2023-08-20T02:06:52;18.43;;;16.60;;
20245;SDS011;10281;54.406;18.556;2023-08-20T02:09:19;18.43;;;16.73;;
20245;SDS011;10281;54.406;18.556;2023-08-20T02:11:46;18.27;;;16.47;;
20245;SDS011;10281;54.406;18.556;2023-08-20T02:14:13;18.23;;;16.53;;
20245;SDS011;10281;54.406;18.556;2023-08-20T02:16:39;18.30;;;16.67;;
20245;SDS011;10281;54.406;18.556;2023-08-20T02:19:06;17.47;;;15.87;;
20245;SDS011;10281;54.406;18.556;2023-08-20T02:21:33;18.57;;;16.80;;
20245;SDS011;10281;54.406;18.556;2023-08-20T02:24:00;18.40;;;16.63;;
20245;SDS011;10281;54.406;18.556;2023-08-20T02:26:27;19.50;;;17.53;;
20245;SDS011;10281;54.406;18.556;2023-08-20T02:28:53;19.00;;;17.30;;
20245;SDS011;10281;54.406;18.556;2023-08-20T02:31:20;19.87;;;17.90;;
20245;SDS011;10281;54.406;18.556;2023-08-20T02:33:47;20.03;;;18.13;;
20245;SDS011;10281;54.406;18.556;2023-08-20T02:36:14;19.80;;;17.63;;
20245;SDS011;10281;54.406;18.556;2023-08-20T02:38:40;18.53;;;16.73;;
20245;SDS011;10281;54.406;18.556;2023-08-20T02:41:07;19.80;;;17.97;;
20245;SDS011;10281;54.406;18.556;2023-08-20T02:43:34;19.67;;;17.77;;
20245;SDS011;10281;54.406;18.556;2023-08-20T02:46:00;19.37;;;17.53;;
20245;SDS011;10281;54.406;18.556;2023-08-20T02:48:27;19.60;;;17.60;;
20245;SDS011;10281;54.406;18.556;2023-08-20T02:50:55;19.43;;;17.50;;
20245;SDS011;10281;54.406;18.556;2023-08-20T02:53:22;19.10;;;17.10;;
20245;SDS011;10281;54.406;18.556;2023-08-20T02:55:48;19.47;;;17.57;;
20245;SDS011;10281;54.406;18.556;2023-08-20T02:58:15;19.80;;;17.80;;
20245;SDS011;10281;54.406;18.556;2023-08-20T03:00:42;20.40;;;18.43;;
20245;SDS011;10281;54.406;18.556;2023-08-20T03:03:10;20.23;;;18.20;;
20245;SDS011;10281;54.406;18.556;2023-08-20T03:05:38;18.93;;;17.13;;
20245;SDS011;10281;54.406;18.556;2023-08-20T03:08:04;20.33;;;18.43;;
20245;SDS011;10281;54.406;18.556;2023-08-20T03:10:31;19.60;;;17.70;;
20245;SDS011;10281;54.406;18.556;2023-08-20T03:12:59;19.60;;;17.70;;
20245;SDS011;10281;54.406;18.556;2023-08-20T03:15:27;20.10;;;18.10;;
20245;SDS011;10281;54.406;18.556;2023-08-20T03:17:54;19.43;;;17.70;;
20245;SDS011;10281;54.406;18.556;2023-08-20T03:20:21;20.17;;;18.17;;
20245;SDS011;10281;54.406;18.556;2023-08-20T03:22:48;19.00;;;17.20;;
20245;SDS011;10281;54.406;18.556;2023-08-20T03:25:14;19.70;;;17.70;;
20245;SDS011;10281;54.406;18.556;2023-08-20T03:27:41;18.53;;;16.73;;
20245;SDS011;10281;54.406;18.556;2023-08-20T03:30:08;18.87;;;17.17;;
20245;SDS011;10281;54.406;18.556;2023-08-20T03:32:35;19.90;;;17.80;;
20245;SDS011;10281;54.406;18.556;2023-08-20T03:35:01;20.70;;;17.63;;
20245;SDS011;10281;54.406;18.556;2023-08-20T03:37:28;20.10;;;18.17;;
20245;SDS011;10281;54.406;18.556;2023-08-20T03:39:55;19.77;;;17.77;;
20245;SDS011;10281;54.406;18.556;2023-08-20T03:42:21;20.20;;;18.30;;
20245;SDS011;10281;54.406;18.556;2023-08-20T03:44:48;20.50;;;18.40;;
20245;SDS011;10281;54.406;18.556;2023-08-20T03:47:15;20.93;;;18.80;;
20245;SDS011;10281;54.406;18.556;2023-08-20T03:49:43;22.23;;;19.90;;
20245;SDS011;10281;54.406;18.556;2023-08-20T03:52:10;20.67;;;18.77;;
20245;SDS011;10281;54.406;18.556;2023-08-20T03:54:36;21.57;;;19.47;;
20245;SDS011;10281;54.406;18.556;2023-08-20T03:57:03;21.53;;;19.43;;
20245;SDS011;10281;54.406;18.556;2023-08-20T03:59:30;21.20;;;19.20;;
20245;SDS011;10281;54.406;18.556;2023-08-20T04:01:57;21.70;;;19.57;;
20245;SDS011;10281;54.406;18.556;2023-08-20T04:04:25;21.57;;;19.50;;
20245;SDS011;10281;54.406;18.556;2023-08-20T04:06:51;21.77;;;19.53;;
20245;SDS011;10281;54.406;18.556;2023-08-20T04:09:18;21.30;;;19.30;;
20245;SDS011;10281;54.406;18.556;2023-08-20T04:11:44;21.77;;;19.77;;
20245;SDS011;10281;54.406;18.556;2023-08-20T04:14:11;21.40;;;19.40;;
20245;SDS011;10281;54.406;18.556;2023-08-20T04:16:38;22.53;;;20.23;;
20245;SDS011;10281;54.406;18.556;2023-08-20T04:19:04;22.57;;;20.47;;
20245;SDS011;10281;54.406;18.556;2023-08-20T04:21:31;21.43;;;19.37;;
20245;SDS011;10281;54.406;18.556;2023-08-20T04:23:58;21.47;;;18.87;;
20245;SDS011;10281;54.406;18.556;2023-08-20T04:26:24;21.53;;;19.53;;
20245;SDS011;10281;54.406;18.556;2023-08-20T04:28:51;21.77;;;19.53;;
20245;SDS011;10281;54.406;18.556;2023-08-20T04:31:18;22.20;;;20.10;;
20245;SDS011;10281;54.406;18.556;2023-08-20T04:33:45;23.13;;;20.73;;
20245;SDS011;10281;54.406;18.556;2023-08-20T04:36:12;22.77;;;20.63;;
20245;SDS011;10281;54.406;18.556;2023-08-20T04:38:38;20.77;;;18.70;;
20245;SDS011;10281;54.406;18.556;2023-08-20T04:41:05;21.83;;;19.83;;
20245;SDS011;10281;54.406;18.556;2023-08-20T04:43:32;20.90;;;19.10;;
20245;SDS011;10281;54.406;18.556;2023-08-20T04:45:58;20.63;;;18.67;;
20245;SDS011;10281;54.406;18.556;2023-08-20T04:48:25;21.53;;;19.43;;
20245;SDS011;10281;54.406;18.556;2023-08-20T04:50:51;23.13;;;20.90;;
20245;SDS011;10281;54.406;18.556;2023-08-20T04:53:18;21.23;;;19.30;;
20245;SDS011;10281;54.406;18.556;2023-08-20T04:55:45;22.73;;;20.53;;
20245;SDS011;10281;54.406;18.556;2023-08-20T04:58:11;22.30;;;20.30;;
20245;SDS011;10281;54.406;18.556;2023-08-20T05:00:38;21.13;;;19.23;;
20245;SDS011;10281;54.406;18.556;2023-08-20T05:03:04;20.80;;;18.90;;
20245;SDS011;10281;54.406;18.556;2023-08-20T05:05:31;21.33;;;19.23;;
20245;SDS011;10281;54.406;18.556;2023-08-20T05:07:58;20.83;;;18.83;;
20245;SDS011;10281;54.406;18.556;2023-08-20T05:10:24;21.40;;;19.30;;
20245;SDS011;10281;54.406;18.556;2023-08-20T05:12:51;21.40;;;19.30;;
20245;SDS011;10281;54.406;18.556;2023-08-20T05:15:17;19.97;;;18.07;;
20245;SDS011;10281;54.406;18.556;2023-08-20T05:17:44;20.87;;;18.67;;
20245;SDS011;10281;54.406;18.556;2023-08-20T05:20:11;19.33;;;17.47;;
20245;SDS011;10281;54.406;18.556;2023-08-20T05:22:37;18.93;;;17.23;;
20245;SDS011;10281;54.406;18.556;2023-08-20T05:25:04;19.23;;;17.43;;
20245;SDS011;10281;54.406;18.556;2023-08-20T05:27:31;19.73;;;17.73;;
20245;SDS011;10281;54.406;18.556;2023-08-20T05:29:58;18.57;;;16.70;;
20245;SDS011;10281;54.406;18.556;2023-08-20T05:32:24;17.97;;;16.20;;
20245;SDS011;10281;54.406;18.556;2023-08-20T05:34:51;17.30;;;15.80;;
20245;SDS011;10281;54.406;18.556;2023-08-20T05:37:18;18.47;;;16.63;;
20245;SDS011;10281;54.406;18.556;2023-08-20T05:39:44;18.40;;;16.70;;
20245;SDS011;10281;54.406;18.556;2023-08-20T05:42:11;16.87;;;15.33;;
20245;SDS011;10281;54.406;18.556;2023-08-20T05:44:38;16.20;;;14.70;;
20245;SDS011;10281;54.406;18.556;2023-08-20T05:47:05;17.17;;;15.57;;
20245;SDS011;10281;54.406;18.556;2023-08-20T05:49:31;17.00;;;15.50;;
20245;SDS011;10281;54.406;18.556;2023-08-20T05:51:58;16.93;;;15.53;;
20245;SDS011;10281;54.406;18.556;2023-08-20T05:54:24;17.77;;;16.17;;
20245;SDS011;10281;54.406;18.556;2023-08-20T05:56:51;16.73;;;15.33;;
20245;SDS011;10281;54.406;18.556;2023-08-20T05:59:18;15.67;;;14.40;;
20245;SDS011;10281;54.406;18.556;2023-08-20T06:01:44;15.80;;;14.20;;
20245;SDS011;10281;54.406;18.556;2023-08-20T06:04:11;15.10;;;13.70;;
20245;SDS011;10281;54.406;18.556;2023-08-20T06:06:37;15.67;;;14.30;;
20245;SDS011;10281;54.406;18.556;2023-08-20T06:09:05;15.97;;;14.10;;
20245;SDS011;10281;54.406;18.556;2023-08-20T06:11:31;17.47;;;15.90;;
20245;SDS011;10281;54.406;18.556;2023-08-20T06:13:58;15.43;;;14.03;;
20245;SDS011;10281;54.406;18.556;2023-08-20T06:16:25;16.07;;;14.77;;
20245;SDS011;10281;54.406;18.556;2023-08-20T06:18:51;16.23;;;14.67;;
20245;SDS011;10281;54.406;18.556;2023-08-20T06:21:18;17.80;;;15.97;;
20245;SDS011;10281;54.406;18.556;2023-08-20T06:23:44;16.43;;;14.90;;
20245;SDS011;10281;54.406;18.556;2023-08-20T06:26:11;16.80;;;15.27;;
20245;SDS011;10281;54.406;18.556;2023-08-20T06:28:38;16.10;;;14.63;;
20245;SDS011;10281;54.406;18.556;2023-08-20T06:31:04;16.10;;;14.80;;
20245;SDS011;10281;54.406;18.556;2023-08-20T06:33:31;16.43;;;14.93;;
20245;SDS011;10281;54.406;18.556;2023-08-20T06:35:58;15.70;;;14.40;;
20245;SDS011;10281;54.406;18.556;2023-08-20T06:38:24;17.27;;;15.77;;
20245;SDS011;10281;54.406;18.556;2023-08-20T06:40:51;18.10;;;16.40;;
20245;SDS011;10281;54.406;18.556;2023-08-20T06:43:19;19.83;;;17.83;;
20245;SDS011;10281;54.406;18.556;2023-08-20T06:45:45;19.93;;;18.13;;
20245;SDS011;10281;54.406;18.556;2023-08-20T06:48:12;18.87;;;17.17;;
20245;SDS011;10281;54.406;18.556;2023-08-20T06:50:41;18.53;;;16.87;;
20245;SDS011;10281;54.406;18.556;2023-08-20T06:53:07;17.63;;;16.13;;
20245;SDS011;10281;54.406;18.556;2023-08-20T06:55:34;19.43;;;17.73;;
20245;SDS011;10281;54.406;18.556;2023-08-20T06:58:01;19.60;;;17.70;;
20245;SDS011;10281;54.406;18.556;2023-08-20T07:00:28;20.73;;;18.90;;
20245;SDS011;10281;54.406;18.556;2023-08-20T07:02:55;20.07;;;18.27;;
20245;SDS011;10281;54.406;18.556;2023-08-20T07:05:21;20.10;;;18.00;;
20245;SDS011;10281;54.406;18.556;2023-08-20T07:07:48;19.20;;;17.43;;
20245;SDS011;10281;54.406;18.556;2023-08-20T07:10:14;19.60;;;17.80;;
20245;SDS011;10281;54.406;18.556;2023-08-20T07:12:41;18.07;;;16.57;;
20245;SDS011;10281;54.406;18.556;2023-08-20T07:15:08;20.33;;;18.33;;
20245;SDS011;10281;54.406;18.556;2023-08-20T07:17:35;18.17;;;16.57;;
20245;SDS011;10281;54.406;18.556;2023-08-20T07:20:01;20.83;;;18.83;;
20245;SDS011;10281;54.406;18.556;2023-08-20T07:22:28;19.00;;;17.30;;
20245;SDS011;10281;54.406;18.556;2023-08-20T07:24:55;19.23;;;17.53;;
20245;SDS011;10281;54.406;18.556;2023-08-20T07:27:22;19.03;;;17.30;;
20245;SDS011;10281;54.406;18.556;2023-08-20T07:29:48;18.73;;;17.07;;
20245;SDS011;10281;54.406;18.556;2023-08-20T07:32:15;18.90;;;16.97;;
20245;SDS011;10281;54.406;18.556;2023-08-20T07:34:41;21.63;;;19.83;;
20245;SDS011;10281;54.406;18.556;2023-08-20T07:37:08;17.43;;;15.70;;
20245;SDS011;10281;54.406;18.556;2023-08-20T07:39:35;17.00;;;15.30;;
20245;SDS011;10281;54.406;18.556;2023-08-20T07:42:02;17.67;;;16.00;;
20245;SDS011;10281;54.406;18.556;2023-08-20T07:44:29;15.40;;;14.10;;
20245;SDS011;10281;54.406;18.556;2023-08-20T07:46:55;16.90;;;15.30;;
20245;SDS011;10281;54.406;18.556;2023-08-20T07:49:22;15.83;;;14.13;;
20245;SDS011;10281;54.406;18.556;2023-08-20T07:51:49;17.47;;;15.80;;
20245;SDS011;10281;54.406;18.556;2023-08-20T07:54:17;16.87;;;15.37;;
20245;SDS011;10281;54.406;18.556;2023-08-20T07:56:44;17.40;;;15.63;;
20245;SDS011;10281;54.406;18.556;2023-08-20T07:59:11;15.83;;;14.37;;
20245;SDS011;10281;54.406;18.556;2023-08-20T08:01:37;16.20;;;14.90;;
20245;SDS011;10281;54.406;18.556;2023-08-20T08:04:04;15.07;;;13.77;;
20245;SDS011;10281;54.406;18.556;2023-08-20T08:06:31;15.63;;;13.97;;
20245;SDS011;10281;54.406;18.556;2023-08-20T08:08:57;16.57;;;15.13;;
20245;SDS011;10281;54.406;18.556;2023-08-20T08:11:28;15.10;;;13.53;;
20245;SDS011;10281;54.406;18.556;2023-08-20T08:13:55;15.13;;;13.63;;
20245;SDS011;10281;54.406;18.556;2023-08-20T08:16:21;14.50;;;13.30;;
20245;SDS011;10281;54.406;18.556;2023-08-20T08:18:48;14.47;;;13.27;;
20245;SDS011;10281;54.406;18.556;2023-08-20T08:21:14;14.63;;;13.33;;
20245;SDS011;10281;54.406;18.556;2023-08-20T08:23:41;13.73;;;12.43;;
20245;SDS011;10281;54.406;18.556;2023-08-20T08:26:08;14.20;;;13.00;;
20245;SDS011;10281;54.406;18.556;2023-08-20T08:28:34;14.07;;;12.80;;
20245;SDS011;10281;54.406;18.556;2023-08-20T08:31:01;13.53;;;12.23;;
20245;SDS011;10281;54.406;18.556;2023-08-20T08:33:27;13.90;;;12.60;;
20245;SDS011;10281;54.406;18.556;2023-08-20T08:35:54;13.93;;;11.40;;
20245;SDS011;10281;54.406;18.556;2023-08-20T08:38:21;13.37;;;12.17;;
20245;SDS011;10281;54.406;18.556;2023-08-20T08:40:47;14.07;;;12.67;;
20245;SDS011;10281;54.406;18.556;2023-08-20T08:43:15;13.37;;;12.17;;
20245;SDS011;10281;54.406;18.556;2023-08-20T08:45:44;14.20;;;13.10;;
20245;SDS011;10281;54.406;18.556;2023-08-20T08:48:13;13.60;;;12.27;;
20245;SDS011;10281;54.406;18.556;2023-08-20T08:50:40;13.10;;;12.00;;
20245;SDS011;10281;54.406;18.556;2023-08-20T08:53:07;12.40;;;11.30;;
20245;SDS011;10281;54.406;18.556;2023-08-20T08:55:34;13.23;;;12.00;;
20245;SDS011;10281;54.406;18.556;2023-08-20T08:58:03;12.67;;;11.57;;
20245;SDS011;10281;54.406;18.556;2023-08-20T09:00:29;12.27;;;11.23;;
20245;SDS011;10281;54.406;18.556;2023-08-20T09:02:58;13.17;;;11.97;;
20245;SDS011;10281;54.406;18.556;2023-08-20T09:05:25;13.80;;;12.60;;
20245;SDS011;10281;54.406;18.556;2023-08-20T09:07:55;12.77;;;11.70;;
20245;SDS011;10281;54.406;18.556;2023-08-20T09:10:25;12.93;;;11.90;;
20245;SDS011;10281;54.406;18.556;2023-08-20T09:12:54;13.17;;;11.97;;
20245;SDS011;10281;54.406;18.556;2023-08-20T09:15:22;12.27;;;11.37;;
20245;SDS011;10281;54.406;18.556;2023-08-20T09:17:53;12.73;;;11.63;;
20245;SDS011;10281;54.406;18.556;2023-08-20T09:20:33;12.60;;;11.30;;
20245;SDS011;10281;54.406;18.556;2023-08-20T09:22:50;12.77;;;11.67;;
20245;SDS011;10281;54.406;18.556;2023-08-20T09:25:16;12.63;;;11.60;;
20245;SDS011;10281;54.406;18.556;2023-08-20T09:27:43;12.37;;;11.37;;
20245;SDS011;10281;54.406;18.556;2023-08-20T09:30:10;12.03;;;10.90;;
20245;SDS011;10281;54.406;18.556;2023-08-20T09:32:41;12.60;;;11.60;;
20245;SDS011;10281;54.406;18.556;2023-08-20T09:35:17;13.27;;;12.07;;
20245;SDS011;10281;54.406;18.556;2023-08-20T09:37:38;12.67;;;11.40;;
20245;SDS011;10281;54.406;18.556;2023-08-20T09:40:05;11.87;;;10.83;;
20245;SDS011;10281;54.406;18.556;2023-08-20T09:42:32;13.10;;;11.90;;
20245;SDS011;10281;54.406;18.556;2023-08-20T09:44:59;12.73;;;11.20;;
20245;SDS011;10281;54.406;18.556;2023-08-20T09:47:30;12.33;;;11.13;;
20245;SDS011;10281;54.406;18.556;2023-08-20T09:50:00;13.30;;;12.07;;
20245;SDS011;10281;54.406;18.556;2023-08-20T09:52:35;12.20;;;11.13;;
20245;SDS011;10281;54.406;18.556;2023-08-20T09:55:07;11.77;;;10.67;;
20245;SDS011;10281;54.406;18.556;2023-08-20T09:57:35;12.27;;;11.20;;
20245;SDS011;10281;54.406;18.556;2023-08-20T10:00:05;12.93;;;11.83;;
20245;SDS011;10281;54.406;18.556;2023-08-20T10:02:35;14.07;;;12.93;;
20245;SDS011;10281;54.406;18.556;2023-08-20T10:05:04;15.17;;;13.77;;
20245;SDS011;10281;54.406;18.556;2023-08-20T10:07:32;16.03;;;14.73;;
20245;SDS011;10281;54.406;18.556;2023-08-20T10:10:00;16.00;;;14.77;;
20245;SDS011;10281;54.406;18.556;2023-08-20T10:12:28;16.93;;;15.47;;
20245;SDS011;10281;54.406;18.556;2023-08-20T10:14:56;17.80;;;16.20;;
20245;SDS011;10281;54.406;18.556;2023-08-20T10:17:23;16.73;;;15.20;;
20245;SDS011;10281;54.406;18.556;2023-08-20T10:19:51;16.57;;;15.13;;
20245;SDS011;10281;54.406;18.556;2023-08-20T10:22:19;16.47;;;14.47;;
20245;SDS011;10281;54.406;18.556;2023-08-20T10:24:47;17.27;;;15.53;;
20245;SDS011;10281;54.406;18.556;2023-08-20T10:29:53;15.27;;;13.77;;
20245;SDS011;10281;54.406;18.556;2023-08-20T10:32:20;13.97;;;12.83;;
20245;SDS011;10281;54.406;18.556;2023-08-20T10:35:04;14.07;;;12.77;;
20245;SDS011;10281;54.406;18.556;2023-08-20T10:37:34;14.47;;;13.10;;
20245;SDS011;10281;54.406;18.556;2023-08-20T10:40:02;13.40;;;12.23;;
20245;SDS011;10281;54.406;18.556;2023-08-20T10:42:30;13.53;;;12.30;;
20245;SDS011;10281;54.406;18.556;2023-08-20T10:44:59;14.70;;;13.13;;
20245;SDS011;10281;54.406;18.556;2023-08-20T10:47:36;15.17;;;13.80;;
20245;SDS011;10281;54.406;18.556;2023-08-20T10:50:03;14.43;;;13.20;;
20245;SDS011;10281;54.406;18.556;2023-08-20T10:52:30;14.83;;;13.33;;
20245;SDS011;10281;54.406;18.556;2023-08-20T10:54:57;16.13;;;14.67;;
20245;SDS011;10281;54.406;18.556;2023-08-20T10:57:32;14.60;;;13.30;;
20245;SDS011;10281;54.406;18.556;2023-08-20T10:59:57;13.37;;;12.27;;
20245;SDS011;10281;54.406;18.556;2023-08-20T11:02:24;14.43;;;13.07;;
20245;SDS011;10281;54.406;18.556;2023-08-20T11:04:52;15.63;;;14.23;;
20245;SDS011;10281;54.406;18.556;2023-08-20T11:07:19;14.77;;;13.53;;
20245;SDS011;10281;54.406;18.556;2023-08-20T11:09:46;15.10;;;13.70;;
20245;SDS011;10281;54.406;18.556;2023-08-20T11:12:14;13.37;;;12.07;;
20245;SDS011;10281;54.406;18.556;2023-08-20T11:14:41;13.30;;;12.07;;
20245;SDS011;10281;54.406;18.556;2023-08-20T11:17:08;11.87;;;10.90;;
20245;SDS011;10281;54.406;18.556;2023-08-20T11:19:35;11.83;;;10.73;;
20245;SDS011;10281;54.406;18.556;2023-08-20T11:22:02;12.90;;;11.57;;
20245;SDS011;10281;54.406;18.556;2023-08-20T11:24:29;11.00;;;9.90;;
20245;SDS011;10281;54.406;18.556;2023-08-20T11:26:56;11.73;;;10.73;;
20245;SDS011;10281;54.406;18.556;2023-08-20T11:29:22;11.07;;;10.17;;
20245;SDS011;10281;54.406;18.556;2023-08-20T11:31:51;11.07;;;10.07;;
20245;SDS011;10281;54.406;18.556;2023-08-20T11:34:18;11.70;;;10.17;;
20245;SDS011;10281;54.406;18.556;2023-08-20T11:36:45;13.10;;;10.70;;
20245;SDS011;10281;54.406;18.556;2023-08-20T11:39:13;15.43;;;11.50;;
20245;SDS011;10281;54.406;18.556;2023-08-20T11:41:41;12.20;;;10.90;;
20245;SDS011;10281;54.406;18.556;2023-08-20T11:44:09;12.07;;;10.83;;
20245;SDS011;10281;54.406;18.556;2023-08-20T11:46:41;13.73;;;11.53;;
20245;SDS011;10281;54.406;18.556;2023-08-20T11:49:10;13.70;;;10.90;;
20245;SDS011;10281;54.406;18.556;2023-08-20T11:51:38;11.43;;;10.23;;
20245;SDS011;10281;54.406;18.556;2023-08-20T11:54:09;11.33;;;10.20;;
20245;SDS011;10281;54.406;18.556;2023-08-20T11:56:43;11.13;;;10.03;;
20245;SDS011;10281;54.406;18.556;2023-08-20T11:59:11;11.20;;;10.10;;
20245;SDS011;10281;54.406;18.556;2023-08-20T12:01:39;10.93;;;9.33;;
20245;SDS011;10281;54.406;18.556;2023-08-20T12:04:07;11.30;;;10.20;;
20245;SDS011;10281;54.406;18.556;2023-08-20T12:06:35;11.60;;;10.47;;
20245;SDS011;10281;54.406;18.556;2023-08-20T12:09:12;10.97;;;9.97;;
20245;SDS011;10281;54.406;18.556;2023-08-20T12:11:36;15.20;;;9.37;;
20245;SDS011;10281;54.406;18.556;2023-08-20T12:14:03;11.00;;;9.90;;
20245;SDS011;10281;54.406;18.556;2023-08-20T12:16:30;10.50;;;9.60;;
20245;SDS011;10281;54.406;18.556;2023-08-20T12:18:56;10.57;;;9.77;;
20245;SDS011;10281;54.406;18.556;2023-08-20T12:21:23;9.87;;;9.00;;
20245;SDS011;10281;54.406;18.556;2023-08-20T12:23:49;11.70;;;9.63;;
20245;SDS011;10281;54.406;18.556;2023-08-20T12:26:16;10.33;;;8.80;;
20245;SDS011;10281;54.406;18.556;2023-08-20T12:28:43;10.17;;;9.20;;
20245;SDS011;10281;54.406;18.556;2023-08-20T12:31:10;10.23;;;9.33;;
20245;SDS011;10281;54.406;18.556;2023-08-20T12:33:36;9.67;;;8.77;;
20245;SDS011;10281;54.406;18.556;2023-08-20T12:36:03;9.60;;;8.67;;
20245;SDS011;10281;54.406;18.556;2023-08-20T12:38:30;9.43;;;8.63;;
20245;SDS011;10281;54.406;18.556;2023-08-20T12:40:59;10.07;;;9.13;;
20245;SDS011;10281;54.406;18.556;2023-08-20T12:43:27;9.83;;;8.93;;
20245;SDS011;10281;54.406;18.556;2023-08-20T12:45:53;9.13;;;8.33;;
20245;SDS011;10281;54.406;18.556;2023-08-20T12:48:20;9.40;;;8.50;;
20245;SDS011;10281;54.406;18.556;2023-08-20T12:50:46;8.80;;;8.10;;
20245;SDS011;10281;54.406;18.556;2023-08-20T12:53:13;9.40;;;8.63;;
20245;SDS011;10281;54.406;18.556;2023-08-20T12:55:40;9.37;;;8.47;;
20245;SDS011;10281;54.406;18.556;2023-08-20T12:58:06;12.37;;;8.93;;
20245;SDS011;10281;54.406;18.556;2023-08-20T13:00:33;9.83;;;8.93;;
20245;SDS011;10281;54.406;18.556;2023-08-20T13:03:00;10.63;;;9.57;;
20245;SDS011;10281;54.406;18.556;2023-08-20T13:05:27;10.60;;;9.73;;
20245;SDS011;10281;54.406;18.556;2023-08-20T13:07:54;10.20;;;8.83;;
20245;SDS011;10281;54.406;18.556;2023-08-20T13:10:21;10.27;;;9.40;;
20245;SDS011;10281;54.406;18.556;2023-08-20T13:12:49;10.00;;;9.20;;
20245;SDS011;10281;54.406;18.556;2023-08-20T13:15:19;9.93;;;8.93;;
20245;SDS011;10281;54.406;18.556;2023-08-20T13:17:48;9.93;;;9.10;;
20245;SDS011;10281;54.406;18.556;2023-08-20T13:20:16;11.03;;;8.27;;
20245;SDS011;10281;54.406;18.556;2023-08-20T13:22:46;9.60;;;8.60;;
20245;SDS011;10281;54.406;18.556;2023-08-20T13:25:14;18.13;;;8.50;;
20245;SDS011;10281;54.406;18.556;2023-08-20T13:27:41;8.77;;;8.10;;
20245;SDS011;10281;54.406;18.556;2023-08-20T13:30:08;9.40;;;8.60;;
20245;SDS011;10281;54.406;18.556;2023-08-20T13:32:36;9.23;;;8.40;;
20245;SDS011;10281;54.406;18.556;2023-08-20T13:35:03;9.60;;;8.80;;
20245;SDS011;10281;54.406;18.556;2023-08-20T13:37:31;10.53;;;9.47;;
20245;SDS011;10281;54.406;18.556;2023-08-20T13:39:58;10.33;;;9.33;;
20245;SDS011;10281;54.406;18.556;2023-08-20T13:42:25;10.07;;;9.07;;
20245;SDS011;10281;54.406;18.556;2023-08-20T13:44:51;9.73;;;8.83;;
20245;SDS011;10281;54.406;18.556;2023-08-20T13:47:18;11.40;;;8.80;;
20245;SDS011;10281;54.406;18.556;2023-08-20T13:49:45;9.53;;;8.73;;
20245;SDS011;10281;54.406;18.556;2023-08-20T13:52:11;9.70;;;8.80;;
20245;SDS011;10281;54.406;18.556;2023-08-20T13:54:38;9.77;;;8.87;;
20245;SDS011;10281;54.406;18.556;2023-08-20T13:57:05;10.20;;;9.20;;
20245;SDS011;10281;54.406;18.556;2023-08-20T13:59:31;9.27;;;8.47;;
20245;SDS011;10281;54.406;18.556;2023-08-20T14:01:58;8.93;;;8.13;;
20245;SDS011;10281;54.406;18.556;2023-08-20T14:04:25;8.97;;;8.17;;
20245;SDS011;10281;54.406;18.556;2023-08-20T14:06:52;9.73;;;8.77;;
20245;SDS011;10281;54.406;18.556;2023-08-20T14:09:18;9.60;;;8.70;;
20245;SDS011;10281;54.406;18.556;2023-08-20T14:11:45;8.80;;;8.13;;
20245;SDS011;10281;54.406;18.556;2023-08-20T14:14:12;9.43;;;8.60;;
20245;SDS011;10281;54.406;18.556;2023-08-20T14:16:39;8.97;;;8.17;;